sensor_id;sensor_type;location;lat;lon;timestamp;pressure;altitude;pressure_sealevel;temperature;humidity
37904;BME280;23738;50.422;18.758;2023-05-24T00:02:18;98186.41;;;16.28;80.83
37904;BME280;23738;50.422;18.758;2023-05-24T00:04:45;98184.75;;;16.25;80.99
37904;BME280;23738;50.422;18.758;2023-05-24T00:07:15;98185.60;;;16.21;81.03
37904;BME280;23738;50.422;18.758;2023-05-24T00:09:42;98186.98;;;16.20;81.14
37904;BME280;23738;50.422;18.758;2023-05-24T00:12:09;98187.82;;;16.19;81.50
37904;BME280;23738;50.422;18.758;2023-05-24T00:14:37;98188.67;;;16.16;81.87
37904;BME280;23738;50.422;18.758;2023-05-24T00:17:04;98190.17;;;16.09;81.98
37904;BME280;23738;50.422;18.758;2023-05-24T00:19:31;98190.20;;;16.04;81.75
37904;BME280;23738;50.422;18.758;2023-05-24T00:21:58;98190.79;;;16.01;81.80
37904;BME280;23738;50.422;18.758;2023-05-24T00:24:26;98191.28;;;15.99;82.16
37904;BME280;23738;50.422;18.758;2023-05-24T00:26:53;98191.68;;;15.98;82.29
37904;BME280;23738;50.422;18.758;2023-05-24T00:29:20;98192.77;;;15.96;82.67
37904;BME280;23738;50.422;18.758;2023-05-24T00:31:47;98190.47;;;15.94;82.45
37904;BME280;23738;50.422;18.758;2023-05-24T00:34:15;98187.95;;;15.91;82.68
37904;BME280;23738;50.422;18.758;2023-05-24T00:36:42;98187.00;;;15.87;82.77
37904;BME280;23738;50.422;18.758;2023-05-24T00:39:09;98186.91;;;15.85;82.60
37904;BME280;23738;50.422;18.758;2023-05-24T00:41:37;98186.86;;;15.86;82.72
37904;BME280;23738;50.422;18.758;2023-05-24T00:44:04;98188.86;;;15.84;82.62
37904;BME280;23738;50.422;18.758;2023-05-24T00:46:32;98188.67;;;15.83;82.97
37904;BME280;23738;50.422;18.758;2023-05-24T00:49:01;98188.33;;;15.81;82.97
37904;BME280;23738;50.422;18.758;2023-05-24T00:51:30;98185.66;;;15.78;82.92
37904;BME280;23738;50.422;18.758;2023-05-24T00:53:58;98188.52;;;15.74;82.84
37904;BME280;23738;50.422;18.758;2023-05-24T00:56:25;98193.56;;;15.73;82.99
37904;BME280;23738;50.422;18.758;2023-05-24T00:58:53;98195.15;;;15.72;82.85
37904;BME280;23738;50.422;18.758;2023-05-24T01:01:22;98196.22;;;15.72;82.91
37904;BME280;23738;50.422;18.758;2023-05-24T01:03:52;98201.55;;;15.72;83.00
37904;BME280;23738;50.422;18.758;2023-05-24T01:06:20;98203.31;;;15.69;83.39
37904;BME280;23738;50.422;18.758;2023-05-24T01:09:05;98208.09;;;15.66;83.30
37904;BME280;23738;50.422;18.758;2023-05-24T01:11:41;98204.30;;;15.66;83.32
37904;BME280;23738;50.422;18.758;2023-05-24T01:14:19;98207.23;;;15.65;83.31
37904;BME280;23738;50.422;18.758;2023-05-24T01:16:52;98217.09;;;15.66;83.23
37904;BME280;23738;50.422;18.758;2023-05-24T01:19:55;98215.46;;;15.67;83.36
37904;BME280;23738;50.422;18.758;2023-05-24T01:22:48;98220.95;;;15.67;83.48
37904;BME280;23738;50.422;18.758;2023-05-24T01:25:21;98221.76;;;15.65;83.59
37904;BME280;23738;50.422;18.758;2023-05-24T01:27:54;98217.05;;;15.61;83.35
37904;BME280;23738;50.422;18.758;2023-05-24T01:30:22;98220.17;;;15.57;83.50
37904;BME280;23738;50.422;18.758;2023-05-24T01:32:49;98217.04;;;15.54;83.58
37904;BME280;23738;50.422;18.758;2023-05-24T01:35:17;98213.27;;;15.53;84.14
37904;BME280;23738;50.422;18.758;2023-05-24T01:37:44;98213.63;;;15.50;83.86
37904;BME280;23738;50.422;18.758;2023-05-24T01:40:13;98220.20;;;15.45;84.34
37904;BME280;23738;50.422;18.758;2023-05-24T01:42:44;98219.94;;;15.44;83.93
37904;BME280;23738;50.422;18.758;2023-05-24T01:45:20;98220.64;;;15.43;83.83
37904;BME280;23738;50.422;18.758;2023-05-24T01:48:00;98222.45;;;15.43;84.01
37904;BME280;23738;50.422;18.758;2023-05-24T01:50:33;98227.58;;;15.45;84.03
37904;BME280;23738;50.422;18.758;2023-05-24T01:53:05;98225.79;;;15.42;84.42
37904;BME280;23738;50.422;18.758;2023-05-24T01:55:34;98229.27;;;15.37;84.17
37904;BME280;23738;50.422;18.758;2023-05-24T01:58:04;98234.64;;;15.40;84.21
37904;BME280;23738;50.422;18.758;2023-05-24T02:00:32;98231.33;;;15.40;84.39
37904;BME280;23738;50.422;18.758;2023-05-24T02:03:00;98235.66;;;15.38;84.38
37904;BME280;23738;50.422;18.758;2023-05-24T02:05:30;98235.58;;;15.37;84.41
37904;BME280;23738;50.422;18.758;2023-05-24T02:07:57;98235.02;;;15.36;84.25
37904;BME280;23738;50.422;18.758;2023-05-24T02:10:25;98237.42;;;15.36;84.44
37904;BME280;23738;50.422;18.758;2023-05-24T02:12:52;98238.34;;;15.37;84.44
37904;BME280;23738;50.422;18.758;2023-05-24T02:15:19;98237.30;;;15.36;84.64
37904;BME280;23738;50.422;18.758;2023-05-24T02:17:47;98239.30;;;15.34;84.53
37904;BME280;23738;50.422;18.758;2023-05-24T02:20:14;98241.45;;;15.31;84.82
37904;BME280;23738;50.422;18.758;2023-05-24T02:22:42;98240.46;;;15.30;85.02
37904;BME280;23738;50.422;18.758;2023-05-24T02:25:10;98240.85;;;15.28;84.84
37904;BME280;23738;50.422;18.758;2023-05-24T02:27:37;98240.25;;;15.28;84.84
37904;BME280;23738;50.422;18.758;2023-05-24T02:30:06;98241.34;;;15.29;84.88
37904;BME280;23738;50.422;18.758;2023-05-24T02:32:34;98245.52;;;15.28;84.97
37904;BME280;23738;50.422;18.758;2023-05-24T02:35:02;98244.92;;;15.27;85.41
37904;BME280;23738;50.422;18.758;2023-05-24T02:37:29;98245.48;;;15.26;85.53
37904;BME280;23738;50.422;18.758;2023-05-24T02:39:56;98249.85;;;15.24;85.18
37904;BME280;23738;50.422;18.758;2023-05-24T02:42:23;98252.65;;;15.26;85.26
37904;BME280;23738;50.422;18.758;2023-05-24T02:44:51;98254.44;;;15.27;85.38
37904;BME280;23738;50.422;18.758;2023-05-24T02:47:18;98257.63;;;15.27;85.48
37904;BME280;23738;50.422;18.758;2023-05-24T02:49:45;98257.48;;;15.25;85.52
37904;BME280;23738;50.422;18.758;2023-05-24T02:52:12;98260.13;;;15.23;85.25
37904;BME280;23738;50.422;18.758;2023-05-24T02:54:40;98260.94;;;15.24;85.28
37904;BME280;23738;50.422;18.758;2023-05-24T02:57:07;98265.45;;;15.24;85.38
37904;BME280;23738;50.422;18.758;2023-05-24T02:59:34;98264.03;;;15.25;85.41
37904;BME280;23738;50.422;18.758;2023-05-24T03:02:02;98261.21;;;15.25;85.66
37904;BME280;23738;50.422;18.758;2023-05-24T03:04:29;98260.60;;;15.23;85.79
37904;BME280;23738;50.422;18.758;2023-05-24T03:06:56;98264.25;;;15.22;85.71
37904;BME280;23738;50.422;18.758;2023-05-24T03:09:23;98262.98;;;15.22;85.66
37904;BME280;23738;50.422;18.758;2023-05-24T03:11:51;98264.00;;;15.22;85.81
37904;BME280;23738;50.422;18.758;2023-05-24T03:14:20;98264.43;;;15.23;85.76
37904;BME280;23738;50.422;18.758;2023-05-24T03:16:50;98267.23;;;15.22;86.06
37904;BME280;23738;50.422;18.758;2023-05-24T03:19:17;98266.77;;;15.21;86.10
37904;BME280;23738;50.422;18.758;2023-05-24T03:21:44;98266.81;;;15.18;86.38
37904;BME280;23738;50.422;18.758;2023-05-24T03:24:11;98269.17;;;15.19;86.32
37904;BME280;23738;50.422;18.758;2023-05-24T03:26:39;98273.33;;;15.19;86.35
37904;BME280;23738;50.422;18.758;2023-05-24T03:29:06;98273.36;;;15.20;86.34
37904;BME280;23738;50.422;18.758;2023-05-24T03:31:33;98273.59;;;15.21;86.61
37904;BME280;23738;50.422;18.758;2023-05-24T03:34:00;98276.89;;;15.19;86.46
37904;BME280;23738;50.422;18.758;2023-05-24T03:36:27;98277.71;;;15.20;86.06
37904;BME280;23738;50.422;18.758;2023-05-24T03:38:55;98286.14;;;15.22;86.45
37904;BME280;23738;50.422;18.758;2023-05-24T03:41:23;98283.58;;;15.20;86.85
37904;BME280;23738;50.422;18.758;2023-05-24T03:43:52;98287.84;;;15.13;86.72
37904;BME280;23738;50.422;18.758;2023-05-24T03:46:19;98289.44;;;15.10;87.11
37904;BME280;23738;50.422;18.758;2023-05-24T03:48:46;98288.73;;;15.02;87.19
37904;BME280;23738;50.422;18.758;2023-05-24T03:51:14;98292.77;;;14.94;86.37
37904;BME280;23738;50.422;18.758;2023-05-24T03:53:41;98293.53;;;14.86;86.74
37904;BME280;23738;50.422;18.758;2023-05-24T03:56:08;98299.20;;;14.78;86.86
37904;BME280;23738;50.422;18.758;2023-05-24T03:58:35;98297.95;;;14.68;87.03
37904;BME280;23738;50.422;18.758;2023-05-24T04:01:04;98298.89;;;14.58;86.51
37904;BME280;23738;50.422;18.758;2023-05-24T04:03:32;98299.21;;;14.48;86.74
37904;BME280;23738;50.422;18.758;2023-05-24T04:05:59;98308.23;;;14.45;86.86
37904;BME280;23738;50.422;18.758;2023-05-24T04:08:27;98309.91;;;14.36;87.12
37904;BME280;23738;50.422;18.758;2023-05-24T04:10:54;98305.98;;;14.27;87.20
37904;BME280;23738;50.422;18.758;2023-05-24T04:13:21;98309.75;;;14.20;87.49
37904;BME280;23738;50.422;18.758;2023-05-24T04:15:48;98318.69;;;14.14;87.17
37904;BME280;23738;50.422;18.758;2023-05-24T04:18:16;98322.38;;;14.09;87.13
37904;BME280;23738;50.422;18.758;2023-05-24T04:20:43;98326.88;;;14.04;86.92
37904;BME280;23738;50.422;18.758;2023-05-24T04:23:10;98334.35;;;14.00;87.34
37904;BME280;23738;50.422;18.758;2023-05-24T04:25:37;98335.70;;;13.94;87.15
37904;BME280;23738;50.422;18.758;2023-05-24T04:28:05;98340.96;;;13.91;86.84
37904;BME280;23738;50.422;18.758;2023-05-24T04:30:32;98343.71;;;13.88;87.03
37904;BME280;23738;50.422;18.758;2023-05-24T04:32:59;98352.42;;;13.83;86.80
37904;BME280;23738;50.422;18.758;2023-05-24T04:35:26;98358.05;;;13.78;86.71
37904;BME280;23738;50.422;18.758;2023-05-24T04:37:53;98357.07;;;13.74;86.75
37904;BME280;23738;50.422;18.758;2023-05-24T04:40:21;98363.25;;;13.70;86.64
37904;BME280;23738;50.422;18.758;2023-05-24T04:42:48;98363.45;;;13.66;86.85
37904;BME280;23738;50.422;18.758;2023-05-24T04:45:16;98367.16;;;13.60;86.66
37904;BME280;23738;50.422;18.758;2023-05-24T04:47:43;98368.40;;;13.56;86.93
37904;BME280;23738;50.422;18.758;2023-05-24T04:50:11;98370.75;;;13.50;87.07
37904;BME280;23738;50.422;18.758;2023-05-24T04:52:38;98375.36;;;13.43;87.40
37904;BME280;23738;50.422;18.758;2023-05-24T04:55:07;98370.61;;;13.33;86.94
37904;BME280;23738;50.422;18.758;2023-05-24T04:57:34;98373.78;;;13.27;87.09
37904;BME280;23738;50.422;18.758;2023-05-24T05:00:02;98374.82;;;13.24;86.88
37904;BME280;23738;50.422;18.758;2023-05-24T05:02:30;98372.38;;;13.22;87.12
37904;BME280;23738;50.422;18.758;2023-05-24T05:04:58;98378.30;;;13.22;86.75
37904;BME280;23738;50.422;18.758;2023-05-24T05:07:25;98384.80;;;13.25;87.13
37904;BME280;23738;50.422;18.758;2023-05-24T05:09:53;98383.67;;;13.22;87.17
37904;BME280;23738;50.422;18.758;2023-05-24T05:12:20;98387.30;;;13.18;86.99
37904;BME280;23738;50.422;18.758;2023-05-24T05:14:47;98392.98;;;13.12;87.19
37904;BME280;23738;50.422;18.758;2023-05-24T05:17:14;98398.25;;;13.04;86.82
37904;BME280;23738;50.422;18.758;2023-05-24T05:19:41;98406.66;;;13.00;86.56
37904;BME280;23738;50.422;18.758;2023-05-24T05:22:08;98402.05;;;12.90;86.93
37904;BME280;23738;50.422;18.758;2023-05-24T05:24:36;98417.08;;;12.89;86.77
37904;BME280;23738;50.422;18.758;2023-05-24T05:27:05;98423.91;;;12.86;86.72
37904;BME280;23738;50.422;18.758;2023-05-24T05:29:32;98425.85;;;12.83;86.91
37904;BME280;23738;50.422;18.758;2023-05-24T05:31:59;98431.82;;;12.81;86.68
37904;BME280;23738;50.422;18.758;2023-05-24T05:34:26;98432.58;;;12.78;86.73
37904;BME280;23738;50.422;18.758;2023-05-24T05:36:53;98437.71;;;12.78;86.75
37904;BME280;23738;50.422;18.758;2023-05-24T05:39:21;98442.52;;;12.75;86.79
37904;BME280;23738;50.422;18.758;2023-05-24T05:41:48;98443.90;;;12.74;86.78
37904;BME280;23738;50.422;18.758;2023-05-24T05:44:16;98442.06;;;12.80;86.97
37904;BME280;23738;50.422;18.758;2023-05-24T05:46:43;98440.19;;;12.92;87.01
37904;BME280;23738;50.422;18.758;2023-05-24T05:49:11;98448.08;;;13.03;87.17
37904;BME280;23738;50.422;18.758;2023-05-24T05:51:39;98448.46;;;13.13;87.16
37904;BME280;23738;50.422;18.758;2023-05-24T05:54:06;98453.77;;;13.18;86.96
37904;BME280;23738;50.422;18.758;2023-05-24T05:56:39;98457.17;;;13.22;86.88
37904;BME280;23738;50.422;18.758;2023-05-24T05:59:10;98459.17;;;13.23;86.82
37904;BME280;23738;50.422;18.758;2023-05-24T06:01:38;98463.73;;;13.23;86.79
37904;BME280;23738;50.422;18.758;2023-05-24T06:04:05;98464.45;;;13.27;86.85
37904;BME280;23738;50.422;18.758;2023-05-24T06:06:33;98465.15;;;13.28;86.63
37904;BME280;23738;50.422;18.758;2023-05-24T06:09:00;98463.95;;;13.26;86.62
37904;BME280;23738;50.422;18.758;2023-05-24T06:11:27;98472.55;;;13.23;86.53
37904;BME280;23738;50.422;18.758;2023-05-24T06:13:54;98471.18;;;13.20;86.54
37904;BME280;23738;50.422;18.758;2023-05-24T06:16:22;98474.77;;;13.28;86.82
37904;BME280;23738;50.422;18.758;2023-05-24T06:18:49;98477.16;;;13.36;86.70
37904;BME280;23738;50.422;18.758;2023-05-24T06:21:16;98484.58;;;13.41;86.65
37904;BME280;23738;50.422;18.758;2023-05-24T06:23:44;98484.23;;;13.41;86.53
37904;BME280;23738;50.422;18.758;2023-05-24T06:26:11;98486.95;;;13.41;86.42
37904;BME280;23738;50.422;18.758;2023-05-24T06:28:38;98491.27;;;13.42;86.42
37904;BME280;23738;50.422;18.758;2023-05-24T06:31:05;98499.44;;;13.47;86.47
37904;BME280;23738;50.422;18.758;2023-05-24T06:33:33;98503.68;;;13.50;86.41
37904;BME280;23738;50.422;18.758;2023-05-24T06:36:00;98513.89;;;13.50;86.39
37904;BME280;23738;50.422;18.758;2023-05-24T06:38:27;98516.90;;;13.52;86.40
37904;BME280;23738;50.422;18.758;2023-05-24T06:40:54;98519.23;;;13.55;86.34
37904;BME280;23738;50.422;18.758;2023-05-24T06:43:22;98523.98;;;13.55;86.25
37904;BME280;23738;50.422;18.758;2023-05-24T06:45:49;98526.60;;;13.59;86.14
37904;BME280;23738;50.422;18.758;2023-05-24T06:48:16;98524.75;;;13.63;86.18
37904;BME280;23738;50.422;18.758;2023-05-24T06:50:44;98521.00;;;13.67;86.13
37904;BME280;23738;50.422;18.758;2023-05-24T06:53:11;98521.91;;;13.64;85.86
37904;BME280;23738;50.422;18.758;2023-05-24T06:55:38;98520.92;;;13.63;85.88
37904;BME280;23738;50.422;18.758;2023-05-24T06:58:06;98523.77;;;13.68;85.88
37904;BME280;23738;50.422;18.758;2023-05-24T07:00:33;98524.40;;;13.69;85.79
37904;BME280;23738;50.422;18.758;2023-05-24T07:03:00;98527.68;;;13.68;85.63
37904;BME280;23738;50.422;18.758;2023-05-24T07:05:27;98529.05;;;13.65;85.53
37904;BME280;23738;50.422;18.758;2023-05-24T07:07:55;98533.12;;;13.64;85.59
37904;BME280;23738;50.422;18.758;2023-05-24T07:10:22;98536.14;;;13.66;85.54
37904;BME280;23738;50.422;18.758;2023-05-24T07:12:50;98538.76;;;13.67;85.44
37904;BME280;23738;50.422;18.758;2023-05-24T07:15:17;98547.89;;;13.69;85.41
37904;BME280;23738;50.422;18.758;2023-05-24T07:17:44;98552.23;;;13.68;85.31
37904;BME280;23738;50.422;18.758;2023-05-24T07:20:12;98556.26;;;13.65;85.24
37904;BME280;23738;50.422;18.758;2023-05-24T07:22:41;98560.89;;;13.59;84.96
37904;BME280;23738;50.422;18.758;2023-05-24T07:25:10;98566.52;;;13.54;84.87
37904;BME280;23738;50.422;18.758;2023-05-24T07:27:37;98570.19;;;13.50;84.89
37904;BME280;23738;50.422;18.758;2023-05-24T07:30:07;98576.79;;;13.51;84.85
37904;BME280;23738;50.422;18.758;2023-05-24T07:32:35;98582.35;;;13.51;84.79
37904;BME280;23738;50.422;18.758;2023-05-24T07:35:02;98586.35;;;13.51;84.89
37904;BME280;23738;50.422;18.758;2023-05-24T07:37:29;98588.61;;;13.55;84.86
37904;BME280;23738;50.422;18.758;2023-05-24T07:39:56;98591.42;;;13.49;84.44
37904;BME280;23738;50.422;18.758;2023-05-24T07:42:23;98591.78;;;13.45;84.54
37904;BME280;23738;50.422;18.758;2023-05-24T07:44:51;98595.10;;;13.46;84.53
37904;BME280;23738;50.422;18.758;2023-05-24T07:47:18;98598.54;;;13.42;84.32
37904;BME280;23738;50.422;18.758;2023-05-24T07:49:45;98602.52;;;13.40;84.36
37904;BME280;23738;50.422;18.758;2023-05-24T07:52:12;98603.69;;;13.38;84.32
37904;BME280;23738;50.422;18.758;2023-05-24T07:54:40;98605.80;;;13.38;84.22
37904;BME280;23738;50.422;18.758;2023-05-24T07:57:07;98609.81;;;13.35;84.16
37904;BME280;23738;50.422;18.758;2023-05-24T07:59:34;98608.02;;;13.35;84.23
37904;BME280;23738;50.422;18.758;2023-05-24T08:02:02;98611.20;;;13.35;84.13
37904;BME280;23738;50.422;18.758;2023-05-24T08:04:31;98606.95;;;13.33;84.01
37904;BME280;23738;50.422;18.758;2023-05-24T08:06:58;98608.11;;;13.29;83.90
37904;BME280;23738;50.422;18.758;2023-05-24T08:09:27;98607.52;;;13.28;84.05
37904;BME280;23738;50.422;18.758;2023-05-24T08:11:55;98607.23;;;13.33;84.11
37904;BME280;23738;50.422;18.758;2023-05-24T08:14:22;98614.70;;;13.39;84.11
37904;BME280;23738;50.422;18.758;2023-05-24T08:16:50;98614.48;;;13.45;84.23
37904;BME280;23738;50.422;18.758;2023-05-24T08:19:17;98621.49;;;13.51;84.24
37904;BME280;23738;50.422;18.758;2023-05-24T08:21:45;98628.34;;;13.56;84.20
37904;BME280;23738;50.422;18.758;2023-05-24T08:24:12;98629.23;;;13.61;84.14
37904;BME280;23738;50.422;18.758;2023-05-24T08:26:39;98632.89;;;13.62;83.85
37904;BME280;23738;50.422;18.758;2023-05-24T08:29:09;98638.86;;;13.60;83.74
37904;BME280;23738;50.422;18.758;2023-05-24T08:31:36;98643.52;;;13.56;83.45
37904;BME280;23738;50.422;18.758;2023-05-24T08:34:04;98650.34;;;13.49;83.30
37904;BME280;23738;50.422;18.758;2023-05-24T08:36:31;98651.23;;;13.42;83.29
37904;BME280;23738;50.422;18.758;2023-05-24T08:38:58;98658.58;;;13.44;83.41
37904;BME280;23738;50.422;18.758;2023-05-24T08:41:25;98658.70;;;13.50;83.39
37904;BME280;23738;50.422;18.758;2023-05-24T08:43:57;98666.27;;;13.48;83.23
37904;BME280;23738;50.422;18.758;2023-05-24T08:46:27;98665.26;;;13.49;83.08
37904;BME280;23738;50.422;18.758;2023-05-24T08:48:56;98666.49;;;13.45;83.06
37904;BME280;23738;50.422;18.758;2023-05-24T08:51:25;98667.35;;;13.44;83.13
37904;BME280;23738;50.422;18.758;2023-05-24T08:53:53;98672.79;;;13.45;83.12
37904;BME280;23738;50.422;18.758;2023-05-24T08:56:22;98674.78;;;13.48;82.97
37904;BME280;23738;50.422;18.758;2023-05-24T08:58:51;98673.81;;;13.44;82.69
37904;BME280;23738;50.422;18.758;2023-05-24T09:01:20;98677.48;;;13.37;82.60
37904;BME280;23738;50.422;18.758;2023-05-24T09:03:47;98679.09;;;13.31;82.51
37904;BME280;23738;50.422;18.758;2023-05-24T09:06:17;98676.81;;;13.27;82.44
37904;BME280;23738;50.422;18.758;2023-05-24T09:08:45;98677.91;;;13.26;82.51
37904;BME280;23738;50.422;18.758;2023-05-24T09:11:14;98674.80;;;13.27;82.35
37904;BME280;23738;50.422;18.758;2023-05-24T09:13:44;98677.33;;;13.28;82.33
37904;BME280;23738;50.422;18.758;2023-05-24T09:16:11;98685.17;;;13.28;82.44
37904;BME280;23738;50.422;18.758;2023-05-24T09:18:40;98683.77;;;13.30;82.31
37904;BME280;23738;50.422;18.758;2023-05-24T09:21:08;98689.88;;;13.27;82.20
37904;BME280;23738;50.422;18.758;2023-05-24T09:23:36;98697.33;;;13.24;82.18
37904;BME280;23738;50.422;18.758;2023-05-24T09:26:07;98700.49;;;13.26;82.16
37904;BME280;23738;50.422;18.758;2023-05-24T09:28:36;98703.84;;;13.26;82.13
37904;BME280;23738;50.422;18.758;2023-05-24T09:31:04;98701.55;;;13.28;82.18
37904;BME280;23738;50.422;18.758;2023-05-24T09:33:32;98703.26;;;13.33;82.21
37904;BME280;23738;50.422;18.758;2023-05-24T09:36:02;98701.04;;;13.35;82.06
37904;BME280;23738;50.422;18.758;2023-05-24T09:38:29;98705.95;;;13.37;82.10
37904;BME280;23738;50.422;18.758;2023-05-24T09:41:01;98705.14;;;13.42;82.25
37904;BME280;23738;50.422;18.758;2023-05-24T09:43:28;98707.82;;;13.50;82.26
37904;BME280;23738;50.422;18.758;2023-05-24T09:45:56;98706.44;;;13.56;82.13
37904;BME280;23738;50.422;18.758;2023-05-24T09:48:25;98708.73;;;13.63;82.20
37904;BME280;23738;50.422;18.758;2023-05-24T09:51:02;98705.80;;;13.71;82.32
37904;BME280;23738;50.422;18.758;2023-05-24T09:53:31;98707.73;;;13.77;82.13
37904;BME280;23738;50.422;18.758;2023-05-24T09:55:59;98704.04;;;13.83;82.19
37904;BME280;23738;50.422;18.758;2023-05-24T09:58:30;98702.52;;;13.89;82.09
37904;BME280;23738;50.422;18.758;2023-05-24T10:01:06;98705.32;;;13.93;81.86
37904;BME280;23738;50.422;18.758;2023-05-24T10:03:34;98711.58;;;13.96;81.73
37904;BME280;23738;50.422;18.758;2023-05-24T10:06:04;98714.13;;;13.99;81.83
37904;BME280;23738;50.422;18.758;2023-05-24T10:08:34;98719.47;;;14.06;81.82
37904;BME280;23738;50.422;18.758;2023-05-24T10:11:03;98721.45;;;14.06;81.59
37904;BME280;23738;50.422;18.758;2023-05-24T10:13:31;98726.46;;;14.05;81.48
37904;BME280;23738;50.422;18.758;2023-05-24T10:16:01;98727.66;;;14.08;81.39
37904;BME280;23738;50.422;18.758;2023-05-24T10:18:28;98729.45;;;14.10;81.29
37904;BME280;23738;50.422;18.758;2023-05-24T10:20:55;98731.83;;;14.09;81.20
37904;BME280;23738;50.422;18.758;2023-05-24T10:23:26;98731.67;;;14.11;81.19
37904;BME280;23738;50.422;18.758;2023-05-24T10:25:58;98727.31;;;14.11;81.10
37904;BME280;23738;50.422;18.758;2023-05-24T10:28:27;98734.34;;;14.15;81.16
37904;BME280;23738;50.422;18.758;2023-05-24T10:31:04;98732.78;;;14.17;80.99
37904;BME280;23738;50.422;18.758;2023-05-24T10:33:34;98733.57;;;14.21;80.93
37904;BME280;23738;50.422;18.758;2023-05-24T10:36:05;98732.23;;;14.24;80.92
37904;BME280;23738;50.422;18.758;2023-05-24T10:38:33;98731.86;;;14.29;80.91
37904;BME280;23738;50.422;18.758;2023-05-24T10:41:01;98730.19;;;14.33;80.85
37904;BME280;23738;50.422;18.758;2023-05-24T10:43:29;98731.51;;;14.39;80.73
37904;BME280;23738;50.422;18.758;2023-05-24T10:45:56;98733.58;;;14.46;80.84
37904;BME280;23738;50.422;18.758;2023-05-24T10:48:34;98737.73;;;14.56;80.82
37904;BME280;23738;50.422;18.758;2023-05-24T10:51:31;98734.30;;;14.68;80.84
37904;BME280;23738;50.422;18.758;2023-05-24T10:54:10;98736.48;;;14.75;80.46
37904;BME280;23738;50.422;18.758;2023-05-24T10:56:40;98737.21;;;14.82;80.61
37904;BME280;23738;50.422;18.758;2023-05-24T10:59:10;98735.27;;;14.94;80.67
37904;BME280;23738;50.422;18.758;2023-05-24T11:01:54;98737.42;;;15.06;80.52
37904;BME280;23738;50.422;18.758;2023-05-24T11:04:22;98737.45;;;15.14;80.33
37904;BME280;23738;50.422;18.758;2023-05-24T11:06:54;98734.80;;;15.14;79.94
37904;BME280;23738;50.422;18.758;2023-05-24T11:09:22;98736.86;;;15.16;79.86
37904;BME280;23738;50.422;18.758;2023-05-24T11:11:53;98739.56;;;15.23;79.93
37904;BME280;23738;50.422;18.758;2023-05-24T11:14:23;98739.58;;;15.31;79.78
37904;BME280;23738;50.422;18.758;2023-05-24T11:16:51;98742.36;;;15.31;79.53
37904;BME280;23738;50.422;18.758;2023-05-24T11:19:20;98736.08;;;15.29;79.36
37904;BME280;23738;50.422;18.758;2023-05-24T11:21:48;98739.11;;;15.36;79.54
37904;BME280;23738;50.422;18.758;2023-05-24T11:24:17;98739.20;;;15.45;79.21
37904;BME280;23738;50.422;18.758;2023-05-24T11:26:45;98736.55;;;15.47;79.12
37904;BME280;23738;50.422;18.758;2023-05-24T11:29:15;98739.56;;;15.48;78.89
37904;BME280;23738;50.422;18.758;2023-05-24T11:31:50;98741.80;;;15.46;78.70
37904;BME280;23738;50.422;18.758;2023-05-24T11:34:18;98743.98;;;15.47;78.82
37904;BME280;23738;50.422;18.758;2023-05-24T11:36:46;98742.81;;;15.49;78.56
37904;BME280;23738;50.422;18.758;2023-05-24T11:39:13;98742.96;;;15.48;78.41
37904;BME280;23738;50.422;18.758;2023-05-24T11:41:41;98741.94;;;15.50;78.19
37904;BME280;23738;50.422;18.758;2023-05-24T11:44:10;98746.80;;;15.51;78.17
37904;BME280;23738;50.422;18.758;2023-05-24T11:46:38;98744.31;;;15.49;78.02
37904;BME280;23738;50.422;18.758;2023-05-24T11:49:05;98739.79;;;15.51;78.09
37904;BME280;23738;50.422;18.758;2023-05-24T11:51:34;98737.65;;;15.57;78.10
37904;BME280;23738;50.422;18.758;2023-05-24T11:54:03;98737.93;;;15.60;77.88
37904;BME280;23738;50.422;18.758;2023-05-24T11:56:31;98740.60;;;15.60;77.75
37904;BME280;23738;50.422;18.758;2023-05-24T11:59:08;98737.63;;;15.62;77.67
37904;BME280;23738;50.422;18.758;2023-05-24T12:01:38;98733.69;;;15.67;77.61
37904;BME280;23738;50.422;18.758;2023-05-24T12:04:06;98739.20;;;15.69;77.37
37904;BME280;23738;50.422;18.758;2023-05-24T12:06:37;98737.91;;;15.67;76.99
37904;BME280;23738;50.422;18.758;2023-05-24T12:09:05;98734.23;;;15.67;76.93
37904;BME280;23738;50.422;18.758;2023-05-24T12:11:37;98735.55;;;15.65;76.83
37904;BME280;23738;50.422;18.758;2023-05-24T12:14:05;98736.77;;;15.64;76.93
37904;BME280;23738;50.422;18.758;2023-05-24T12:16:34;98735.72;;;15.69;76.96
37904;BME280;23738;50.422;18.758;2023-05-24T12:19:01;98735.05;;;15.72;76.78
37904;BME280;23738;50.422;18.758;2023-05-24T12:21:31;98731.13;;;15.73;76.20
37904;BME280;23738;50.422;18.758;2023-05-24T12:24:08;98731.40;;;15.71;76.38
37904;BME280;23738;50.422;18.758;2023-05-24T12:26:36;98732.55;;;15.73;75.93
37904;BME280;23738;50.422;18.758;2023-05-24T12:29:06;98737.27;;;15.69;76.11
37904;BME280;23738;50.422;18.758;2023-05-24T12:31:33;98739.69;;;15.72;76.24
37904;BME280;23738;50.422;18.758;2023-05-24T12:34:01;98743.00;;;15.75;76.29
37904;BME280;23738;50.422;18.758;2023-05-24T12:36:29;98746.45;;;15.78;76.35
37904;BME280;23738;50.422;18.758;2023-05-24T12:38:57;98745.73;;;15.79;76.25
37904;BME280;23738;50.422;18.758;2023-05-24T12:41:25;98750.23;;;15.83;75.95
37904;BME280;23738;50.422;18.758;2023-05-24T12:43:53;98752.86;;;15.85;76.34
37904;BME280;23738;50.422;18.758;2023-05-24T12:46:20;98747.73;;;15.89;76.00
37904;BME280;23738;50.422;18.758;2023-05-24T12:48:48;98744.80;;;15.87;75.88
37904;BME280;23738;50.422;18.758;2023-05-24T12:51:16;98745.95;;;15.87;76.03
37904;BME280;23738;50.422;18.758;2023-05-24T12:53:43;98744.42;;;15.88;75.75
37904;BME280;23738;50.422;18.758;2023-05-24T12:56:10;98745.55;;;15.86;75.58
37904;BME280;23738;50.422;18.758;2023-05-24T12:58:37;98745.96;;;15.86;75.71